createdAt,value
2023-05-03T00:04:16.928Z,100.00
2023-05-03T00:09:19.863Z,100.00
2023-05-03T00:14:22.571Z,100.00
2023-05-03T00:19:31.700Z,100.00
2023-05-03T00:24:35.626Z,100.00
2023-05-03T00:29:38.841Z,100.00
2023-05-03T00:34:43.105Z,100.00
2023-05-03T00:39:45.892Z,100.00
2023-05-03T00:44:48.672Z,100.00
2023-05-03T00:49:52.871Z,100.00
2023-05-03T00:54:55.611Z,100.00
2023-05-03T00:59:58.944Z,100.00
2023-05-03T01:05:03.434Z,100.00
2023-05-03T01:10:18.798Z,100.00
2023-05-03T01:15:33.516Z,100.00
2023-05-03T01:20:38.582Z,100.00
2023-05-03T01:25:42.755Z,100.00
2023-05-03T01:30:47.123Z,100.00
2023-05-03T01:35:55.987Z,100.00
2023-05-03T01:41:03.473Z,100.00
2023-05-03T01:46:06.611Z,100.00
2023-05-03T01:51:09.546Z,100.00
2023-05-03T01:56:13.843Z,100.00
2023-05-03T02:01:16.637Z,100.00
2023-05-03T02:06:19.457Z,100.00
2023-05-03T02:11:23.585Z,100.00
2023-05-03T02:16:27.614Z,100.00
2023-05-03T02:21:31.511Z,100.00
2023-05-03T02:26:35.648Z,100.00
2023-05-03T02:31:39.321Z,100.00
2023-05-03T02:36:42.956Z,100.00
2023-05-03T02:41:47.276Z,100.00
2023-05-03T02:46:50.444Z,100.00
2023-05-03T02:51:53.947Z,100.00
2023-05-03T02:56:58.106Z,100.00
2023-05-03T03:02:00.943Z,100.00
2023-05-03T03:07:03.911Z,100.00
2023-05-03T03:12:08.312Z,100.00
2023-05-03T03:17:11.794Z,100.00
2023-05-03T03:22:15.107Z,100.00
2023-05-03T03:27:19.308Z,100.00
2023-05-03T03:32:22.749Z,100.00
2023-05-03T03:37:25.787Z,100.00
2023-05-03T03:42:31.625Z,100.00
2023-05-03T03:47:34.863Z,100.00
2023-05-03T03:52:37.925Z,100.00
2023-05-03T03:57:42.415Z,100.00
2023-05-03T04:02:46.987Z,100.00
2023-05-03T04:07:53.663Z,100.00
2023-05-03T04:12:58.495Z,100.00
2023-05-03T04:18:01.407Z,100.00
2023-05-03T04:23:04.543Z,100.00
2023-05-03T04:28:09.998Z,100.00
2023-05-03T04:33:17.399Z,100.00
2023-05-03T04:38:20.556Z,100.00
2023-05-03T04:43:25.054Z,100.00
2023-05-03T04:48:27.951Z,100.00
2023-05-03T04:53:32.020Z,100.00
2023-05-03T04:58:44.918Z,100.00
2023-05-03T05:03:50.348Z,100.00
2023-05-03T05:08:57.862Z,100.00
2023-05-03T05:14:02.095Z,100.00
2023-05-03T05:19:05.313Z,100.00
2023-05-03T05:24:08.467Z,100.00
2023-05-03T05:29:13.675Z,100.00
2023-05-03T05:34:16.519Z,100.00
2023-05-03T05:39:21.121Z,100.00
2023-05-03T05:44:26.022Z,100.00
2023-05-03T05:49:29.985Z,100.00
2023-05-03T05:54:33.940Z,100.00
2023-05-03T05:59:38.630Z,100.00
2023-05-03T06:04:41.886Z,100.00
2023-05-03T06:09:45.055Z,100.00
2023-05-03T06:15:01.947Z,100.00
2023-05-03T06:20:14.259Z,100.00
2023-05-03T06:25:19.566Z,100.00
2023-05-03T06:30:29.096Z,100.00
2023-05-03T06:35:37.727Z,100.00
2023-05-03T06:40:42.453Z,97.46
2023-05-03T06:45:48.778Z,94.63
2023-05-03T06:50:51.655Z,95.54
2023-05-03T06:55:54.392Z,94.17
2023-05-03T07:00:58.627Z,94.48
2023-05-03T07:06:04.124Z,90.77
2023-05-03T07:11:07.647Z,87.55
2023-05-03T07:16:14.469Z,82.31
2023-05-03T07:21:18.083Z,83.12
2023-05-03T07:26:21.786Z,79.45
2023-05-03T07:31:26.030Z,79.50
2023-05-03T07:36:29.079Z,73.89
2023-05-03T07:41:33.862Z,77.69
2023-05-03T07:46:38.117Z,77.13
2023-05-03T07:51:41.115Z,74.55
2023-05-03T07:56:43.911Z,75.16
2023-05-03T08:01:48.277Z,72.88
2023-05-03T08:06:51.183Z,73.17
2023-05-03T08:11:56.140Z,70.29
2023-05-03T08:17:02.048Z,68.63
2023-05-03T08:22:05.603Z,66.48
2023-05-03T08:27:09.587Z,65.50
2023-05-03T08:32:16.135Z,65.84
2023-05-03T08:37:18.841Z,65.84
2023-05-03T08:42:25.163Z,61.15
2023-05-03T08:47:36.222Z,64.70
2023-05-03T08:52:40.889Z,63.94
2023-05-03T08:57:44.938Z,63.90
2023-05-03T09:02:52.636Z,61.79
2023-05-03T09:21:23.166Z,59.17
2023-05-03T09:26:34.565Z,58.36
2023-05-03T09:31:59.329Z,59.21
2023-05-03T09:37:04.352Z,58.41
2023-05-03T09:42:13.135Z,58.40
2023-05-03T09:47:17.244Z,56.42
2023-05-03T09:52:23.288Z,55.12
2023-05-03T09:57:27.201Z,55.47
2023-05-03T10:02:33.068Z,55.78
2023-05-03T10:07:41.237Z,55.67
2023-05-03T10:12:46.503Z,53.59
2023-05-03T10:17:54.627Z,55.52
2023-05-03T10:23:12.605Z,53.35
2023-05-03T10:28:15.920Z,52.97
2023-05-03T10:33:33.284Z,53.45
2023-05-03T10:38:39.404Z,52.52
2023-05-03T10:43:44.266Z,50.70
2023-05-03T10:49:16.288Z,51.95
2023-05-03T10:54:20.661Z,48.60
2023-05-03T10:59:26.129Z,48.84
2023-05-03T11:04:40.568Z,48.67
2023-05-03T11:09:47.588Z,48.10
2023-05-03T11:14:51.696Z,46.94
2023-05-03T11:19:54.946Z,45.60
2023-05-03T11:24:59.255Z,45.94
2023-05-03T11:30:02.011Z,46.43
2023-05-03T11:35:07.250Z,45.75
2023-05-03T11:40:18.281Z,43.88
2023-05-03T11:45:25.109Z,44.27
2023-05-03T11:50:44.258Z,44.52
2023-05-03T11:55:49.909Z,41.42
2023-05-03T12:00:55.350Z,41.55
2023-05-03T12:05:58.765Z,41.72
2023-05-03T12:11:06.871Z,40.30
2023-05-03T12:16:14.943Z,37.95
2023-05-03T12:26:29.377Z,36.25
2023-05-03T12:31:35.000Z,36.48
2023-05-03T12:36:38.992Z,34.71
2023-05-03T12:46:54.854Z,33.77
2023-05-03T12:57:15.323Z,30.69
2023-05-03T13:03:20.166Z,34.86
2023-05-03T13:07:43.923Z,32.27
2023-05-03T13:12:48.846Z,32.69
2023-05-03T13:17:52.633Z,33.67
2023-05-03T13:22:58.733Z,31.76
2023-05-03T13:28:03.917Z,30.48
2023-05-03T13:33:07.437Z,30.35
2023-05-03T13:38:10.441Z,30.30
2023-05-03T13:43:15.159Z,29.14
2023-05-03T13:48:19.288Z,26.55
2023-05-03T13:53:22.927Z,30.25
2023-05-03T13:58:27.023Z,27.99
2023-05-03T14:03:30.258Z,28.49
2023-05-03T14:08:33.120Z,28.50
2023-05-03T14:13:53.866Z,25.45
2023-05-03T14:18:58.844Z,26.72
2023-05-03T14:24:03.428Z,26.93
2023-05-03T14:29:08.546Z,29.07
2023-05-03T14:34:11.317Z,25.55
2023-05-03T14:39:16.284Z,24.78
2023-05-03T14:44:20.605Z,24.46
2023-05-03T14:49:23.484Z,24.64
2023-05-03T14:54:28.901Z,24.51
2023-05-03T14:59:33.912Z,23.95
2023-05-03T15:04:39.623Z,22.52
2023-05-03T15:09:42.972Z,24.06
2023-05-03T15:14:48.962Z,22.85
2023-05-03T15:19:52.672Z,21.90
2023-05-03T15:24:55.945Z,23.18
2023-05-03T15:30:00.514Z,22.74
2023-05-03T15:35:05.773Z,21.95
2023-05-03T15:40:11.753Z,20.94
2023-05-03T15:45:15.917Z,22.23
2023-05-03T15:50:19.890Z,21.81
2023-05-03T15:55:23.347Z,20.99
2023-05-03T16:00:27.791Z,22.21
2023-05-03T16:05:31.723Z,21.01
2023-05-03T16:10:34.777Z,21.17
2023-05-03T16:15:39.648Z,21.74
2023-05-03T16:20:42.425Z,22.32
2023-05-03T16:25:45.151Z,21.45
2023-05-03T16:30:49.769Z,22.39
2023-05-03T16:35:52.613Z,21.01
2023-05-03T16:40:55.468Z,21.11
2023-05-03T16:46:01.447Z,22.51
2023-05-03T16:51:04.488Z,23.00
2023-05-03T16:56:07.471Z,22.40
2023-05-03T17:01:11.720Z,23.55
2023-05-03T17:06:15.702Z,22.57
2023-05-03T17:11:18.499Z,21.57
2023-05-03T17:16:23.252Z,23.92
2023-05-03T17:21:27.454Z,26.62
2023-05-03T17:26:30.336Z,29.11
2023-05-03T17:31:34.529Z,30.78
2023-05-03T17:36:37.793Z,32.10
2023-05-03T17:41:42.733Z,33.93
2023-05-03T17:46:48.849Z,35.88
2023-05-03T17:51:52.079Z,36.78
2023-05-03T17:56:57.733Z,38.06
2023-05-03T18:02:05.587Z,38.87
2023-05-03T18:07:08.557Z,40.15
2023-05-03T18:12:11.438Z,40.44
2023-05-03T18:17:15.728Z,40.96
2023-05-03T18:22:22.242Z,42.79
2023-05-03T18:27:26.284Z,43.15
2023-05-03T18:32:30.367Z,44.96
2023-05-03T18:37:33.131Z,45.50
2023-05-03T18:42:35.936Z,45.38
2023-05-03T18:47:40.844Z,47.41
2023-05-03T18:52:44.948Z,48.84
2023-05-03T18:57:48.068Z,49.88
2023-05-03T19:02:52.489Z,50.21
2023-05-03T19:07:55.485Z,51.65
2023-05-03T19:12:58.492Z,52.39
2023-05-03T19:18:03.591Z,54.75
2023-05-03T19:23:06.709Z,57.63
2023-05-03T19:28:10.582Z,64.39
2023-05-03T19:33:14.761Z,69.23
2023-05-03T19:38:17.469Z,71.20
2023-05-03T19:43:20.399Z,68.84
2023-05-03T19:48:24.769Z,75.99
2023-05-03T19:53:28.749Z,77.45
2023-05-03T19:58:32.059Z,79.54
2023-05-03T20:03:36.430Z,79.94
2023-05-03T20:08:39.281Z,81.59
2023-05-03T20:13:42.652Z,81.44
2023-05-03T20:18:47.749Z,83.57
2023-05-03T20:23:51.253Z,84.53
2023-05-03T20:28:54.034Z,84.97
2023-05-03T20:33:58.390Z,85.42
2023-05-03T20:39:01.144Z,85.55
2023-05-03T20:44:04.559Z,84.14
2023-05-03T20:49:10.116Z,84.64
2023-05-03T20:54:13.407Z,85.14
2023-05-03T20:59:17.039Z,86.67
2023-05-03T21:04:21.244Z,88.39
2023-05-03T21:09:24.388Z,88.82
2023-05-03T21:14:28.628Z,88.97
2023-05-03T21:19:35.078Z,90.77
2023-05-03T21:24:38.895Z,90.79
2023-05-03T21:29:41.613Z,91.83
2023-05-03T21:34:46.148Z,93.40
2023-05-03T21:40:00.504Z,94.41
2023-05-03T21:45:05.402Z,95.72
2023-05-03T21:50:10.533Z,96.77
2023-05-03T21:55:13.347Z,96.17
2023-05-03T22:00:20.848Z,97.21
2023-05-03T22:05:26.692Z,97.76
2023-05-03T22:10:29.390Z,99.06
2023-05-03T22:15:32.188Z,98.79
2023-05-03T22:20:36.281Z,99.19
2023-05-03T22:25:39.041Z,100.00
2023-05-03T22:30:41.835Z,100.00
2023-05-03T22:35:45.982Z,100.00
2023-05-03T22:40:48.760Z,99.34
2023-05-03T22:45:51.473Z,99.41
2023-05-03T22:50:55.661Z,100.00
2023-05-03T22:55:58.907Z,100.00
2023-05-03T23:01:01.739Z,100.00
2023-05-03T23:06:06.340Z,100.00
2023-05-03T23:11:09.383Z,100.00
2023-05-03T23:16:12.376Z,100.00
2023-05-03T23:21:16.498Z,100.00
2023-05-03T23:26:19.940Z,100.00
2023-05-03T23:31:23.064Z,100.00
2023-05-03T23:36:27.910Z,100.00
2023-05-03T23:41:30.819Z,100.00
2023-05-03T23:46:34.524Z,100.00
2023-05-03T23:51:38.743Z,100.00
2023-05-03T23:56:41.738Z,100.00
